sensor_id;sensor_type;location;lat;lon;timestamp;P1;durP1;ratioP1;P2;durP2;ratioP2
21959;SDS011;11144;43.030;25.108;2023-02-24T00:00:11;33.08;;;17.42;;
21959;SDS011;11144;43.030;25.108;2023-02-24T00:02:03;36.40;;;18.33;;
21959;SDS011;11144;43.030;25.108;2023-02-24T00:03:37;34.70;;;18.80;;
21959;SDS011;11144;43.030;25.108;2023-02-24T00:05:16;36.10;;;19.80;;
21959;SDS011;11144;43.030;25.108;2023-02-24T00:06:49;42.38;;;20.33;;
21959;SDS011;11144;43.030;25.108;2023-02-24T00:08:21;32.50;;;15.85;;
21959;SDS011;11144;43.030;25.108;2023-02-24T00:09:54;20.45;;;13.30;;
21959;SDS011;11144;43.030;25.108;2023-02-24T00:11:28;21.20;;;12.85;;
21959;SDS011;11144;43.030;25.108;2023-02-24T00:13:01;26.98;;;13.52;;
21959;SDS011;11144;43.030;25.108;2023-02-24T00:14:37;25.88;;;12.63;;
21959;SDS011;11144;43.030;25.108;2023-02-24T00:16:13;25.30;;;13.48;;
21959;SDS011;11144;43.030;25.108;2023-02-24T00:17:48;24.33;;;13.88;;
21959;SDS011;11144;43.030;25.108;2023-02-24T00:19:22;28.95;;;14.80;;
21959;SDS011;11144;43.030;25.108;2023-02-24T00:21:00;25.02;;;13.65;;
21959;SDS011;11144;43.030;25.108;2023-02-24T00:22:38;25.38;;;13.35;;
21959;SDS011;11144;43.030;25.108;2023-02-24T00:24:12;19.23;;;11.88;;
21959;SDS011;11144;43.030;25.108;2023-02-24T00:25:46;23.50;;;11.95;;
21959;SDS011;11144;43.030;25.108;2023-02-24T00:27:20;21.23;;;11.63;;
21959;SDS011;11144;43.030;25.108;2023-02-24T00:28:53;21.75;;;11.55;;
21959;SDS011;11144;43.030;25.108;2023-02-24T00:30:28;21.35;;;12.23;;
21959;SDS011;11144;43.030;25.108;2023-02-24T00:32:03;23.23;;;11.75;;
21959;SDS011;11144;43.030;25.108;2023-02-24T00:33:37;21.73;;;10.68;;
21959;SDS011;11144;43.030;25.108;2023-02-24T00:35:10;21.42;;;11.50;;
21959;SDS011;11144;43.030;25.108;2023-02-24T00:36:45;26.02;;;12.15;;
21959;SDS011;11144;43.030;25.108;2023-02-24T00:38:18;19.45;;;11.68;;
21959;SDS011;11144;43.030;25.108;2023-02-24T00:39:51;19.58;;;11.00;;
21959;SDS011;11144;43.030;25.108;2023-02-24T00:41:29;23.60;;;11.68;;
21959;SDS011;11144;43.030;25.108;2023-02-24T00:43:04;18.63;;;11.07;;
21959;SDS011;11144;43.030;25.108;2023-02-24T00:44:39;23.48;;;11.73;;
21959;SDS011;11144;43.030;25.108;2023-02-24T00:46:17;50.78;;;23.50;;
21959;SDS011;11144;43.030;25.108;2023-02-24T00:47:52;95.38;;;38.33;;
21959;SDS011;11144;43.030;25.108;2023-02-24T00:49:28;239.80;;;88.05;;
21959;SDS011;11144;43.030;25.108;2023-02-24T00:51:01;71.70;;;32.13;;
21959;SDS011;11144;43.030;25.108;2023-02-24T00:52:39;115.78;;;51.25;;
21959;SDS011;11144;43.030;25.108;2023-02-24T00:54:14;65.75;;;31.65;;
21959;SDS011;11144;43.030;25.108;2023-02-24T00:55:47;31.60;;;15.98;;
21959;SDS011;11144;43.030;25.108;2023-02-24T00:57:30;23.27;;;12.00;;
21959;SDS011;11144;43.030;25.108;2023-02-24T00:59:05;34.45;;;18.80;;
21959;SDS011;11144;43.030;25.108;2023-02-24T01:00:39;23.27;;;13.13;;
21959;SDS011;11144;43.030;25.108;2023-02-24T01:02:16;22.98;;;10.85;;
21959;SDS011;11144;43.030;25.108;2023-02-24T01:03:50;19.90;;;9.68;;
21959;SDS011;11144;43.030;25.108;2023-02-24T01:05:26;21.20;;;10.38;;
21959;SDS011;11144;43.030;25.108;2023-02-24T01:06:59;15.82;;;9.35;;
21959;SDS011;11144;43.030;25.108;2023-02-24T01:08:34;26.65;;;10.20;;
21959;SDS011;11144;43.030;25.108;2023-02-24T01:10:07;20.38;;;10.20;;
21959;SDS011;11144;43.030;25.108;2023-02-24T01:11:43;20.60;;;10.95;;
21959;SDS011;11144;43.030;25.108;2023-02-24T01:13:35;17.05;;;8.52;;
21959;SDS011;11144;43.030;25.108;2023-02-24T01:15:10;18.63;;;9.98;;
21959;SDS011;11144;43.030;25.108;2023-02-24T01:16:43;18.85;;;9.30;;
21959;SDS011;11144;43.030;25.108;2023-02-24T01:18:22;15.13;;;8.82;;
21959;SDS011;11144;43.030;25.108;2023-02-24T01:19:55;18.77;;;9.32;;
21959;SDS011;11144;43.030;25.108;2023-02-24T01:21:30;19.00;;;9.52;;
21959;SDS011;11144;43.030;25.108;2023-02-24T01:23:04;21.48;;;10.02;;
21959;SDS011;11144;43.030;25.108;2023-02-24T01:24:38;16.42;;;9.93;;
21959;SDS011;11144;43.030;25.108;2023-02-24T01:26:11;18.33;;;11.40;;
21959;SDS011;11144;43.030;25.108;2023-02-24T01:27:46;18.17;;;10.07;;
21959;SDS011;11144;43.030;25.108;2023-02-24T01:29:19;20.35;;;10.48;;
21959;SDS011;11144;43.030;25.108;2023-02-24T01:30:53;17.88;;;10.13;;
21959;SDS011;11144;43.030;25.108;2023-02-24T01:32:27;15.82;;;9.38;;
21959;SDS011;11144;43.030;25.108;2023-02-24T01:34:04;22.13;;;10.02;;
21959;SDS011;11144;43.030;25.108;2023-02-24T01:35:37;19.45;;;9.48;;
21959;SDS011;11144;43.030;25.108;2023-02-24T01:37:11;19.13;;;10.07;;
21959;SDS011;11144;43.030;25.108;2023-02-24T01:38:47;17.42;;;8.90;;
21959;SDS011;11144;43.030;25.108;2023-02-24T01:40:20;20.13;;;10.60;;
21959;SDS011;11144;43.030;25.108;2023-02-24T01:41:57;18.00;;;9.52;;
21959;SDS011;11144;43.030;25.108;2023-02-24T01:43:50;15.93;;;8.38;;
21959;SDS011;11144;43.030;25.108;2023-02-24T01:45:30;17.33;;;9.65;;
21959;SDS011;11144;43.030;25.108;2023-02-24T01:47:07;18.20;;;9.60;;
21959;SDS011;11144;43.030;25.108;2023-02-24T01:48:40;19.00;;;10.35;;
21959;SDS011;11144;43.030;25.108;2023-02-24T01:50:15;22.77;;;12.02;;
21959;SDS011;11144;43.030;25.108;2023-02-24T01:51:53;18.77;;;10.20;;
21959;SDS011;11144;43.030;25.108;2023-02-24T01:53:29;21.45;;;10.50;;
21959;SDS011;11144;43.030;25.108;2023-02-24T01:55:05;19.35;;;9.85;;
21959;SDS011;11144;43.030;25.108;2023-02-24T01:56:40;15.75;;;9.57;;
21959;SDS011;11144;43.030;25.108;2023-02-24T01:58:18;23.55;;;9.73;;
21959;SDS011;11144;43.030;25.108;2023-02-24T01:59:54;16.73;;;8.85;;
21959;SDS011;11144;43.030;25.108;2023-02-24T02:01:33;18.98;;;9.02;;
21959;SDS011;11144;43.030;25.108;2023-02-24T02:03:12;18.70;;;8.48;;
21959;SDS011;11144;43.030;25.108;2023-02-24T02:04:55;20.38;;;9.43;;
21959;SDS011;11144;43.030;25.108;2023-02-24T02:06:35;17.00;;;9.02;;
21959;SDS011;11144;43.030;25.108;2023-02-24T02:08:10;15.38;;;8.05;;
21959;SDS011;11144;43.030;25.108;2023-02-24T02:09:45;20.63;;;9.77;;
21959;SDS011;11144;43.030;25.108;2023-02-24T02:11:21;16.10;;;9.68;;
21959;SDS011;11144;43.030;25.108;2023-02-24T02:12:54;18.75;;;9.85;;
21959;SDS011;11144;43.030;25.108;2023-02-24T02:14:27;19.10;;;9.27;;
21959;SDS011;11144;43.030;25.108;2023-02-24T02:16:06;16.17;;;8.02;;
21959;SDS011;11144;43.030;25.108;2023-02-24T02:17:51;18.58;;;8.90;;
21959;SDS011;11144;43.030;25.108;2023-02-24T02:22:03;19.75;;;8.98;;
21959;SDS011;11144;43.030;25.108;2023-02-24T02:25:50;16.73;;;8.82;;
21959;SDS011;11144;43.030;25.108;2023-02-24T02:31:59;19.33;;;10.95;;
21959;SDS011;11144;43.030;25.108;2023-02-24T02:33:54;22.77;;;12.90;;
21959;SDS011;11144;43.030;25.108;2023-02-24T02:35:43;36.70;;;15.27;;
21959;SDS011;11144;43.030;25.108;2023-02-24T02:37:30;26.35;;;11.93;;
21959;SDS011;11144;43.030;25.108;2023-02-24T02:39:09;19.23;;;9.05;;
21959;SDS011;11144;43.030;25.108;2023-02-24T02:40:50;18.13;;;8.85;;
21959;SDS011;11144;43.030;25.108;2023-02-24T02:42:33;23.20;;;11.95;;
21959;SDS011;11144;43.030;25.108;2023-02-24T02:44:16;16.48;;;8.38;;
21959;SDS011;11144;43.030;25.108;2023-02-24T02:45:54;19.80;;;9.00;;
21959;SDS011;11144;43.030;25.108;2023-02-24T02:47:34;18.55;;;10.57;;
21959;SDS011;11144;43.030;25.108;2023-02-24T02:49:15;25.77;;;11.63;;
21959;SDS011;11144;43.030;25.108;2023-02-24T02:50:54;18.08;;;11.30;;
21959;SDS011;11144;43.030;25.108;2023-02-24T02:52:36;18.23;;;9.63;;
21959;SDS011;11144;43.030;25.108;2023-02-24T02:54:15;19.33;;;10.55;;
21959;SDS011;11144;43.030;25.108;2023-02-24T02:55:55;17.85;;;10.32;;
21959;SDS011;11144;43.030;25.108;2023-02-24T02:57:32;17.23;;;9.82;;
21959;SDS011;11144;43.030;25.108;2023-02-24T02:59:08;16.00;;;8.85;;
21959;SDS011;11144;43.030;25.108;2023-02-24T03:00:46;18.80;;;9.43;;
21959;SDS011;11144;43.030;25.108;2023-02-24T03:02:33;18.65;;;9.23;;
21959;SDS011;11144;43.030;25.108;2023-02-24T03:04:11;17.90;;;8.65;;
21959;SDS011;11144;43.030;25.108;2023-02-24T03:05:50;16.35;;;8.48;;
21959;SDS011;11144;43.030;25.108;2023-02-24T03:07:28;19.42;;;9.65;;
21959;SDS011;11144;43.030;25.108;2023-02-24T03:09:09;21.45;;;9.77;;
21959;SDS011;11144;43.030;25.108;2023-02-24T03:10:48;37.00;;;18.63;;
21959;SDS011;11144;43.030;25.108;2023-02-24T03:12:24;41.80;;;20.23;;
21959;SDS011;11144;43.030;25.108;2023-02-24T03:14:01;145.73;;;71.38;;
21959;SDS011;11144;43.030;25.108;2023-02-24T03:15:37;55.35;;;30.30;;
21959;SDS011;11144;43.030;25.108;2023-02-24T03:17:16;20.67;;;11.35;;
21959;SDS011;11144;43.030;25.108;2023-02-24T03:18:55;16.55;;;10.20;;
21959;SDS011;11144;43.030;25.108;2023-02-24T03:20:34;21.88;;;9.43;;
21959;SDS011;11144;43.030;25.108;2023-02-24T03:22:12;16.33;;;8.65;;
21959;SDS011;11144;43.030;25.108;2023-02-24T03:23:49;19.77;;;10.02;;
21959;SDS011;11144;43.030;25.108;2023-02-24T03:25:30;22.88;;;8.73;;
21959;SDS011;11144;43.030;25.108;2023-02-24T03:27:18;20.70;;;9.60;;
21959;SDS011;11144;43.030;25.108;2023-02-24T03:29:02;22.63;;;10.15;;
21959;SDS011;11144;43.030;25.108;2023-02-24T03:30:42;21.40;;;9.63;;
21959;SDS011;11144;43.030;25.108;2023-02-24T03:32:19;17.00;;;8.60;;
21959;SDS011;11144;43.030;25.108;2023-02-24T03:33:56;22.20;;;9.38;;
21959;SDS011;11144;43.030;25.108;2023-02-24T03:35:35;20.27;;;10.43;;
21959;SDS011;11144;43.030;25.108;2023-02-24T03:37:14;21.33;;;9.35;;
21959;SDS011;11144;43.030;25.108;2023-02-24T03:38:48;24.88;;;11.40;;
21959;SDS011;11144;43.030;25.108;2023-02-24T03:40:22;23.33;;;10.95;;
21959;SDS011;11144;43.030;25.108;2023-02-24T03:42:02;37.08;;;19.88;;
21959;SDS011;11144;43.030;25.108;2023-02-24T03:43:40;46.08;;;21.40;;
21959;SDS011;11144;43.030;25.108;2023-02-24T03:45:17;26.95;;;13.60;;
21959;SDS011;11144;43.030;25.108;2023-02-24T03:46:54;24.08;;;10.82;;
21959;SDS011;11144;43.030;25.108;2023-02-24T03:48:28;18.88;;;11.90;;
21959;SDS011;11144;43.030;25.108;2023-02-24T03:50:03;21.50;;;11.48;;
21959;SDS011;11144;43.030;25.108;2023-02-24T03:51:47;22.45;;;11.27;;
21959;SDS011;11144;43.030;25.108;2023-02-24T03:53:42;19.30;;;11.35;;
21959;SDS011;11144;43.030;25.108;2023-02-24T03:55:30;23.90;;;11.07;;
21959;SDS011;11144;43.030;25.108;2023-02-24T03:57:14;21.15;;;11.50;;
21959;SDS011;11144;43.030;25.108;2023-02-24T03:58:59;23.45;;;10.85;;
21959;SDS011;11144;43.030;25.108;2023-02-24T04:00:45;16.95;;;9.82;;
21959;SDS011;11144;43.030;25.108;2023-02-24T04:02:29;16.48;;;8.90;;
21959;SDS011;11144;43.030;25.108;2023-02-24T04:04:06;18.83;;;10.35;;
21959;SDS011;11144;43.030;25.108;2023-02-24T04:05:58;18.80;;;10.35;;
21959;SDS011;11144;43.030;25.108;2023-02-24T04:07:40;22.65;;;9.95;;
21959;SDS011;11144;43.030;25.108;2023-02-24T04:09:28;22.80;;;10.32;;
21959;SDS011;11144;43.030;25.108;2023-02-24T04:11:19;17.50;;;8.68;;
21959;SDS011;11144;43.030;25.108;2023-02-24T04:12:59;15.38;;;8.50;;
21959;SDS011;11144;43.030;25.108;2023-02-24T04:14:39;22.25;;;10.60;;
21959;SDS011;11144;43.030;25.108;2023-02-24T04:16:20;16.67;;;9.00;;
21959;SDS011;11144;43.030;25.108;2023-02-24T04:18:01;15.10;;;8.02;;
21959;SDS011;11144;43.030;25.108;2023-02-24T04:19:42;19.90;;;9.25;;
21959;SDS011;11144;43.030;25.108;2023-02-24T04:21:20;51.22;;;24.13;;
21959;SDS011;11144;43.030;25.108;2023-02-24T04:22:55;34.10;;;15.95;;
21959;SDS011;11144;43.030;25.108;2023-02-24T04:24:34;22.80;;;10.93;;
21959;SDS011;11144;43.030;25.108;2023-02-24T04:26:10;20.65;;;9.98;;
21959;SDS011;11144;43.030;25.108;2023-02-24T04:27:44;23.23;;;11.07;;
21959;SDS011;11144;43.030;25.108;2023-02-24T04:29:21;25.38;;;10.77;;
21959;SDS011;11144;43.030;25.108;2023-02-24T04:30:58;22.90;;;10.80;;
21959;SDS011;11144;43.030;25.108;2023-02-24T04:32:38;15.48;;;8.88;;
21959;SDS011;11144;43.030;25.108;2023-02-24T04:34:15;18.10;;;8.93;;
21959;SDS011;11144;43.030;25.108;2023-02-24T04:35:51;24.05;;;9.82;;
21959;SDS011;11144;43.030;25.108;2023-02-24T04:37:25;17.05;;;9.57;;
21959;SDS011;11144;43.030;25.108;2023-02-24T04:39:05;15.95;;;8.57;;
21959;SDS011;11144;43.030;25.108;2023-02-24T04:40:40;18.63;;;9.48;;
21959;SDS011;11144;43.030;25.108;2023-02-24T04:42:14;42.60;;;17.60;;
21959;SDS011;11144;43.030;25.108;2023-02-24T04:43:47;50.25;;;20.23;;
21959;SDS011;11144;43.030;25.108;2023-02-24T04:45:22;47.63;;;17.60;;
21959;SDS011;11144;43.030;25.108;2023-02-24T04:46:57;34.17;;;16.13;;
21959;SDS011;11144;43.030;25.108;2023-02-24T04:48:32;41.97;;;17.65;;
21959;SDS011;11144;43.030;25.108;2023-02-24T04:50:05;29.65;;;12.60;;
21959;SDS011;11144;43.030;25.108;2023-02-24T04:51:41;25.02;;;11.05;;
21959;SDS011;11144;43.030;25.108;2023-02-24T04:53:15;24.98;;;11.15;;
21959;SDS011;11144;43.030;25.108;2023-02-24T04:54:49;23.48;;;10.57;;
21959;SDS011;11144;43.030;25.108;2023-02-24T04:56:24;32.88;;;12.38;;
21959;SDS011;11144;43.030;25.108;2023-02-24T04:57:59;19.30;;;10.07;;
21959;SDS011;11144;43.030;25.108;2023-02-24T04:59:33;25.77;;;12.10;;
21959;SDS011;11144;43.030;25.108;2023-02-24T05:01:09;37.58;;;16.73;;
21959;SDS011;11144;43.030;25.108;2023-02-24T05:02:43;22.60;;;11.13;;
21959;SDS011;11144;43.030;25.108;2023-02-24T05:04:16;28.58;;;12.52;;
21959;SDS011;11144;43.030;25.108;2023-02-24T05:05:51;24.80;;;11.40;;
21959;SDS011;11144;43.030;25.108;2023-02-24T05:07:27;18.83;;;9.93;;
21959;SDS011;11144;43.030;25.108;2023-02-24T05:09:00;20.83;;;10.23;;
21959;SDS011;11144;43.030;25.108;2023-02-24T05:10:42;20.65;;;10.25;;
21959;SDS011;11144;43.030;25.108;2023-02-24T05:12:18;21.20;;;11.00;;
21959;SDS011;11144;43.030;25.108;2023-02-24T05:13:51;21.52;;;9.25;;
21959;SDS011;11144;43.030;25.108;2023-02-24T05:15:25;21.13;;;8.85;;
21959;SDS011;11144;43.030;25.108;2023-02-24T05:17:01;18.88;;;8.68;;
21959;SDS011;11144;43.030;25.108;2023-02-24T05:18:35;14.10;;;7.57;;
21959;SDS011;11144;43.030;25.108;2023-02-24T05:20:09;35.53;;;8.48;;
21959;SDS011;11144;43.030;25.108;2023-02-24T05:22:00;19.48;;;8.48;;
21959;SDS011;11144;43.030;25.108;2023-02-24T05:23:34;17.83;;;8.40;;
21959;SDS011;11144;43.030;25.108;2023-02-24T05:25:09;17.38;;;8.20;;
21959;SDS011;11144;43.030;25.108;2023-02-24T05:26:44;15.95;;;8.07;;
21959;SDS011;11144;43.030;25.108;2023-02-24T05:28:20;16.00;;;8.10;;
21959;SDS011;11144;43.030;25.108;2023-02-24T05:29:54;18.73;;;7.95;;
21959;SDS011;11144;43.030;25.108;2023-02-24T05:31:27;20.35;;;8.20;;
21959;SDS011;11144;43.030;25.108;2023-02-24T05:33:02;13.52;;;7.28;;
21959;SDS011;11144;43.030;25.108;2023-02-24T05:34:37;21.27;;;10.05;;
21959;SDS011;11144;43.030;25.108;2023-02-24T05:36:12;17.65;;;10.80;;
21959;SDS011;11144;43.030;25.108;2023-02-24T05:37:47;21.38;;;10.02;;
21959;SDS011;11144;43.030;25.108;2023-02-24T05:39:22;25.13;;;10.18;;
21959;SDS011;11144;43.030;25.108;2023-02-24T05:41:02;19.80;;;9.00;;
21959;SDS011;11144;43.030;25.108;2023-02-24T05:42:38;20.77;;;9.77;;
21959;SDS011;11144;43.030;25.108;2023-02-24T05:44:14;24.48;;;9.85;;
21959;SDS011;11144;43.030;25.108;2023-02-24T05:45:53;29.10;;;10.18;;
21959;SDS011;11144;43.030;25.108;2023-02-24T05:47:28;18.05;;;9.43;;
21959;SDS011;11144;43.030;25.108;2023-02-24T05:49:02;26.20;;;10.88;;
21959;SDS011;11144;43.030;25.108;2023-02-24T05:50:39;25.05;;;11.07;;
21959;SDS011;11144;43.030;25.108;2023-02-24T05:52:16;37.55;;;14.48;;
21959;SDS011;11144;43.030;25.108;2023-02-24T05:53:50;22.92;;;10.07;;
21959;SDS011;11144;43.030;25.108;2023-02-24T05:55:26;20.10;;;9.70;;
21959;SDS011;11144;43.030;25.108;2023-02-24T05:56:59;19.55;;;10.80;;
21959;SDS011;11144;43.030;25.108;2023-02-24T05:58:34;21.63;;;9.90;;
21959;SDS011;11144;43.030;25.108;2023-02-24T06:00:11;20.50;;;11.70;;
21959;SDS011;11144;43.030;25.108;2023-02-24T06:01:47;20.38;;;10.32;;
21959;SDS011;11144;43.030;25.108;2023-02-24T06:03:23;24.48;;;10.23;;
21959;SDS011;11144;43.030;25.108;2023-02-24T06:05:01;23.60;;;11.10;;
21959;SDS011;11144;43.030;25.108;2023-02-24T06:06:40;20.77;;;10.32;;
21959;SDS011;11144;43.030;25.108;2023-02-24T06:08:13;22.40;;;11.13;;
21959;SDS011;11144;43.030;25.108;2023-02-24T06:09:47;20.38;;;12.38;;
21959;SDS011;11144;43.030;25.108;2023-02-24T06:11:24;24.40;;;11.82;;
21959;SDS011;11144;43.030;25.108;2023-02-24T06:12:57;30.02;;;12.15;;
21959;SDS011;11144;43.030;25.108;2023-02-24T06:14:32;19.67;;;11.30;;
21959;SDS011;11144;43.030;25.108;2023-02-24T06:16:07;25.92;;;11.75;;
21959;SDS011;11144;43.030;25.108;2023-02-24T06:17:43;23.08;;;12.50;;
21959;SDS011;11144;43.030;25.108;2023-02-24T06:19:17;28.08;;;13.32;;
21959;SDS011;11144;43.030;25.108;2023-02-24T06:20:51;29.48;;;13.90;;
21959;SDS011;11144;43.030;25.108;2023-02-24T06:22:25;19.83;;;11.73;;
21959;SDS011;11144;43.030;25.108;2023-02-24T06:23:57;30.20;;;11.60;;
21959;SDS011;11144;43.030;25.108;2023-02-24T06:25:31;21.60;;;10.63;;
21959;SDS011;11144;43.030;25.108;2023-02-24T06:27:05;29.27;;;10.95;;
21959;SDS011;11144;43.030;25.108;2023-02-24T06:28:41;35.03;;;13.60;;
21959;SDS011;11144;43.030;25.108;2023-02-24T06:30:14;29.70;;;12.95;;
21959;SDS011;11144;43.030;25.108;2023-02-24T06:31:50;25.85;;;12.38;;
21959;SDS011;11144;43.030;25.108;2023-02-24T06:33:25;27.58;;;12.30;;
21959;SDS011;11144;43.030;25.108;2023-02-24T06:34:58;33.88;;;18.00;;
21959;SDS011;11144;43.030;25.108;2023-02-24T06:36:31;43.40;;;21.25;;
21959;SDS011;11144;43.030;25.108;2023-02-24T06:38:04;46.63;;;24.80;;
21959;SDS011;11144;43.030;25.108;2023-02-24T06:39:37;45.45;;;25.10;;
21959;SDS011;11144;43.030;25.108;2023-02-24T06:41:11;45.88;;;23.70;;
21959;SDS011;11144;43.030;25.108;2023-02-24T06:42:44;42.80;;;21.17;;
21959;SDS011;11144;43.030;25.108;2023-02-24T06:44:18;36.40;;;17.95;;
21959;SDS011;11144;43.030;25.108;2023-02-24T06:45:51;37.67;;;18.35;;
21959;SDS011;11144;43.030;25.108;2023-02-24T06:47:26;35.13;;;15.57;;
21959;SDS011;11144;43.030;25.108;2023-02-24T06:49:00;24.77;;;12.45;;
21959;SDS011;11144;43.030;25.108;2023-02-24T06:50:34;30.42;;;13.70;;
21959;SDS011;11144;43.030;25.108;2023-02-24T06:52:07;30.05;;;13.48;;
21959;SDS011;11144;43.030;25.108;2023-02-24T06:53:41;24.95;;;13.02;;
21959;SDS011;11144;43.030;25.108;2023-02-24T06:55:20;33.60;;;15.43;;
21959;SDS011;11144;43.030;25.108;2023-02-24T06:56:59;31.20;;;15.63;;
21959;SDS011;11144;43.030;25.108;2023-02-24T06:58:34;39.72;;;19.55;;
21959;SDS011;11144;43.030;25.108;2023-02-24T07:00:10;37.30;;;19.35;;
21959;SDS011;11144;43.030;25.108;2023-02-24T07:01:47;37.72;;;21.60;;
21959;SDS011;11144;43.030;25.108;2023-02-24T07:03:23;40.30;;;20.92;;
21959;SDS011;11144;43.030;25.108;2023-02-24T07:05:10;41.63;;;21.27;;
21959;SDS011;11144;43.030;25.108;2023-02-24T07:06:46;47.42;;;23.17;;
21959;SDS011;11144;43.030;25.108;2023-02-24T07:08:23;53.67;;;23.00;;
21959;SDS011;11144;43.030;25.108;2023-02-24T07:09:57;50.40;;;25.67;;
21959;SDS011;11144;43.030;25.108;2023-02-24T07:11:31;51.45;;;25.23;;
21959;SDS011;11144;43.030;25.108;2023-02-24T07:13:07;70.53;;;37.63;;
21959;SDS011;11144;43.030;25.108;2023-02-24T07:14:42;48.63;;;24.42;;
21959;SDS011;11144;43.030;25.108;2023-02-24T07:16:15;65.95;;;28.92;;
21959;SDS011;11144;43.030;25.108;2023-02-24T07:17:52;55.15;;;28.02;;
21959;SDS011;11144;43.030;25.108;2023-02-24T07:19:27;68.35;;;29.45;;
21959;SDS011;11144;43.030;25.108;2023-02-24T07:21:03;52.92;;;25.88;;
21959;SDS011;11144;43.030;25.108;2023-02-24T07:22:41;51.00;;;27.05;;
21959;SDS011;11144;43.030;25.108;2023-02-24T07:24:17;63.42;;;29.85;;
21959;SDS011;11144;43.030;25.108;2023-02-24T07:25:55;52.17;;;26.98;;
21959;SDS011;11144;43.030;25.108;2023-02-24T07:27:29;46.35;;;24.77;;
21959;SDS011;11144;43.030;25.108;2023-02-24T07:29:03;44.60;;;23.15;;
21959;SDS011;11144;43.030;25.108;2023-02-24T07:30:38;45.85;;;22.48;;
21959;SDS011;11144;43.030;25.108;2023-02-24T07:32:13;30.30;;;16.15;;
21959;SDS011;11144;43.030;25.108;2023-02-24T07:33:46;28.75;;;15.70;;
21959;SDS011;11144;43.030;25.108;2023-02-24T07:35:23;29.23;;;14.90;;
21959;SDS011;11144;43.030;25.108;2023-02-24T07:36:56;29.02;;;15.93;;
21959;SDS011;11144;43.030;25.108;2023-02-24T07:38:29;28.17;;;16.52;;
21959;SDS011;11144;43.030;25.108;2023-02-24T07:40:03;25.27;;;15.68;;
21959;SDS011;11144;43.030;25.108;2023-02-24T07:42:08;26.20;;;15.82;;
21959;SDS011;11144;43.030;25.108;2023-02-24T07:43:58;21.75;;;13.23;;
21959;SDS011;11144;43.030;25.108;2023-02-24T07:45:53;24.73;;;14.45;;
21959;SDS011;11144;43.030;25.108;2023-02-24T07:47:35;29.92;;;15.32;;
21959;SDS011;11144;43.030;25.108;2023-02-24T07:49:35;28.10;;;14.23;;
21959;SDS011;11144;43.030;25.108;2023-02-24T07:51:20;27.60;;;14.70;;
21959;SDS011;11144;43.030;25.108;2023-02-24T07:53:21;27.52;;;12.85;;
21959;SDS011;11144;43.030;25.108;2023-02-24T07:55:21;34.25;;;13.60;;
21959;SDS011;11144;43.030;25.108;2023-02-24T07:57:04;24.58;;;13.95;;
21959;SDS011;11144;43.030;25.108;2023-02-24T07:58:52;33.35;;;16.48;;
21959;SDS011;11144;43.030;25.108;2023-02-24T08:00:50;24.83;;;13.50;;
21959;SDS011;11144;43.030;25.108;2023-02-24T08:02:59;31.40;;;13.80;;
21959;SDS011;11144;43.030;25.108;2023-02-24T08:04:39;33.30;;;14.50;;
21959;SDS011;11144;43.030;25.108;2023-02-24T08:06:43;37.53;;;16.60;;
21959;SDS011;11144;43.030;25.108;2023-02-24T08:08:47;50.83;;;23.65;;
21959;SDS011;11144;43.030;25.108;2023-02-24T08:10:44;41.08;;;23.98;;
21959;SDS011;11144;43.030;25.108;2023-02-24T08:12:45;43.25;;;24.83;;
21959;SDS011;11144;43.030;25.108;2023-02-24T08:14:24;46.47;;;25.00;;
21959;SDS011;11144;43.030;25.108;2023-02-24T08:16:04;46.10;;;24.67;;
21959;SDS011;11144;43.030;25.108;2023-02-24T08:17:38;42.80;;;22.63;;
21959;SDS011;11144;43.030;25.108;2023-02-24T08:19:12;38.92;;;23.08;;
21959;SDS011;11144;43.030;25.108;2023-02-24T08:20:50;37.75;;;22.33;;
21959;SDS011;11144;43.030;25.108;2023-02-24T08:22:26;50.53;;;21.75;;
21959;SDS011;11144;43.030;25.108;2023-02-24T08:24:06;52.60;;;21.45;;
21959;SDS011;11144;43.030;25.108;2023-02-24T08:25:48;54.95;;;23.80;;
21959;SDS011;11144;43.030;25.108;2023-02-24T08:27:22;38.13;;;19.63;;
21959;SDS011;11144;43.030;25.108;2023-02-24T08:28:57;30.50;;;16.65;;
21959;SDS011;11144;43.030;25.108;2023-02-24T08:30:31;41.38;;;18.40;;
21959;SDS011;11144;43.030;25.108;2023-02-24T08:32:09;35.72;;;15.25;;
21959;SDS011;11144;43.030;25.108;2023-02-24T08:33:43;40.38;;;19.20;;
21959;SDS011;11144;43.030;25.108;2023-02-24T08:35:18;37.70;;;14.45;;
21959;SDS011;11144;43.030;25.108;2023-02-24T08:36:53;46.58;;;17.70;;
21959;SDS011;11144;43.030;25.108;2023-02-24T08:38:29;40.45;;;16.52;;
21959;SDS011;11144;43.030;25.108;2023-02-24T08:40:14;34.47;;;16.15;;
21959;SDS011;11144;43.030;25.108;2023-02-24T08:42:08;39.70;;;16.15;;
21959;SDS011;11144;43.030;25.108;2023-02-24T08:43:45;30.65;;;14.98;;
21959;SDS011;11144;43.030;25.108;2023-02-24T08:45:19;35.42;;;15.77;;
21959;SDS011;11144;43.030;25.108;2023-02-24T08:46:53;47.50;;;22.27;;
21959;SDS011;11144;43.030;25.108;2023-02-24T08:48:27;53.15;;;22.17;;
21959;SDS011;11144;43.030;25.108;2023-02-24T08:50:08;49.35;;;22.95;;
21959;SDS011;11144;43.030;25.108;2023-02-24T08:51:42;41.95;;;22.35;;
21959;SDS011;11144;43.030;25.108;2023-02-24T08:53:18;39.72;;;21.17;;
21959;SDS011;11144;43.030;25.108;2023-02-24T08:54:52;31.08;;;19.10;;
21959;SDS011;11144;43.030;25.108;2023-02-24T08:56:30;37.95;;;19.45;;
21959;SDS011;11144;43.030;25.108;2023-02-24T08:58:05;39.45;;;20.35;;
21959;SDS011;11144;43.030;25.108;2023-02-24T08:59:41;34.78;;;17.88;;
21959;SDS011;11144;43.030;25.108;2023-02-24T09:01:21;36.58;;;21.90;;
21959;SDS011;11144;43.030;25.108;2023-02-24T09:02:56;36.60;;;18.20;;
21959;SDS011;11144;43.030;25.108;2023-02-24T09:04:29;37.67;;;19.25;;
21959;SDS011;11144;43.030;25.108;2023-02-24T09:06:05;38.08;;;20.25;;
21959;SDS011;11144;43.030;25.108;2023-02-24T09:07:40;30.35;;;14.18;;
21959;SDS011;11144;43.030;25.108;2023-02-24T09:09:15;25.67;;;15.27;;
21959;SDS011;11144;43.030;25.108;2023-02-24T09:10:56;37.67;;;18.50;;
21959;SDS011;11144;43.030;25.108;2023-02-24T09:12:46;45.50;;;22.37;;
21959;SDS011;11144;43.030;25.108;2023-02-24T09:14:20;38.60;;;19.75;;
21959;SDS011;11144;43.030;25.108;2023-02-24T09:15:59;37.45;;;20.15;;
21959;SDS011;11144;43.030;25.108;2023-02-24T09:17:33;37.15;;;18.90;;
21959;SDS011;11144;43.030;25.108;2023-02-24T09:19:21;27.80;;;14.60;;
21959;SDS011;11144;43.030;25.108;2023-02-24T09:21:32;37.20;;;18.35;;
21959;SDS011;11144;43.030;25.108;2023-02-24T09:23:23;30.88;;;15.38;;
21959;SDS011;11144;43.030;25.108;2023-02-24T09:25:02;30.20;;;14.63;;
21959;SDS011;11144;43.030;25.108;2023-02-24T09:26:49;21.67;;;12.90;;
21959;SDS011;11144;43.030;25.108;2023-02-24T09:28:30;23.40;;;13.65;;
21959;SDS011;11144;43.030;25.108;2023-02-24T09:30:19;26.98;;;13.32;;
21959;SDS011;11144;43.030;25.108;2023-02-24T09:32:09;28.88;;;13.25;;
21959;SDS011;11144;43.030;25.108;2023-02-24T09:33:45;30.63;;;15.50;;
21959;SDS011;11144;43.030;25.108;2023-02-24T09:35:21;30.92;;;16.80;;